Time;durP1;ratioP1;P1;durP2;ratioP2;P2;SDS_P1;SDS_P2;PMS_P1;PMS_P2;Temp;Humidity;BMP_temperature;BMP_pressure;BME280_temperature;BME280_humidity;BME280_pressure;Samples;Min_cycle;Max_cycle;Signal;HPM_P1;HPM_P2
2024/03/31 00:00:17;;;;;;;13.50;12.13;;;8.20;99.90;;;;;;5029948;28;20191;-75
2024/03/31 00:02:42;;;;;;;13.07;11.77;;;8.20;99.90;;;;;;5033245;28;20180;-75
2024/03/31 00:05:08;;;;;;;13.60;12.03;;;8.10;99.90;;;;;;5035763;28;20210;-75
2024/03/31 00:07:35;;;;;;;15.47;12.63;;;8.10;99.90;;;;;;5032926;28;20176;-75
2024/03/31 00:10:01;;;;;;;13.10;11.83;;;8.10;99.90;;;;;;5032945;28;20214;-75
2024/03/31 00:12:27;;;;;;;13.10;11.90;;;8.10;99.90;;;;;;5025712;28;20188;-75
2024/03/31 00:14:53;;;;;;;13.13;11.83;;;8.10;99.90;;;;;;5013590;28;20540;-75
2024/03/31 00:17:19;;;;;;;13.00;11.27;;;8.10;99.90;;;;;;5012743;28;20211;-74
2024/03/31 00:19:45;;;;;;;12.77;11.50;;;8.00;99.90;;;;;;5013102;28;20188;-75
2024/03/31 00:22:10;;;;;;;14.53;12.93;;;8.00;99.90;;;;;;5012940;28;20172;-75
2024/03/31 00:24:36;;;;;;;15.73;13.07;;;8.00;99.90;;;;;;5012969;28;20251;-74
2024/03/31 00:27:02;;;;;;;14.07;12.50;;;8.00;99.90;;;;;;5012694;28;20176;-74
2024/03/31 00:29:28;;;;;;;15.07;13.23;;;8.00;99.90;;;;;;5011951;28;20208;-74
2024/03/31 00:31:54;;;;;;;14.40;12.97;;;8.00;99.90;;;;;;5013406;28;20222;-75
2024/03/31 00:34:23;;;;;;;16.43;12.63;;;7.90;99.90;;;;;;5013052;28;20211;-75
2024/03/31 00:36:48;;;;;;;15.33;13.20;;;8.00;99.90;;;;;;5012916;28;20178;-75
2024/03/31 00:39:14;;;;;;;14.30;12.80;;;7.90;99.90;;;;;;5024472;28;20199;-75
2024/03/31 00:41:41;;;;;;;16.47;13.47;;;8.00;99.90;;;;;;5032463;28;20203;-75
2024/03/31 00:44:06;;;;;;;15.63;13.40;;;8.00;99.90;;;;;;5032135;28;20766;-75
2024/03/31 00:46:32;;;;;;;13.83;12.40;;;8.00;99.90;;;;;;5032223;28;20270;-75
2024/03/31 00:48:58;;;;;;;16.20;12.97;;;8.00;99.90;;;;;;5032329;28;20564;-75
2024/03/31 00:51:23;;;;;;;18.43;12.93;;;7.90;99.90;;;;;;5032486;28;20176;-75
2024/03/31 00:53:49;;;;;;;15.63;13.03;;;7.90;99.90;;;;;;5032019;28;20610;-75
2024/03/31 00:56:15;;;;;;;19.50;14.50;;;7.90;99.90;;;;;;5032127;28;20210;-75
2024/03/31 00:58:42;;;;;;;16.17;13.33;;;7.90;99.90;;;;;;5032263;28;20179;-75
2024/03/31 01:01:08;;;;;;;13.83;12.17;;;7.90;99.90;;;;;;5037740;28;20167;-75
2024/03/31 01:03:34;;;;;;;17.37;13.93;;;8.00;99.90;;;;;;5035390;28;20202;-75
2024/03/31 01:06:07;;;;;;;17.90;13.63;;;8.00;99.90;;;;;;5037137;28;20175;-75
2024/03/31 01:08:32;;;;;;;16.70;12.70;;;8.00;99.90;;;;;;5034019;28;20178;-75
2024/03/31 01:10:58;;;;;;;13.67;12.17;;;8.00;99.90;;;;;;5032471;28;20168;-75
2024/03/31 01:13:24;;;;;;;14.53;12.53;;;8.00;99.90;;;;;;5030439;28;20286;-75
2024/03/31 01:15:49;;;;;;;13.97;12.47;;;8.00;99.90;;;;;;5031783;28;20175;-75
2024/03/31 01:18:15;;;;;;;13.70;12.30;;;8.00;99.90;;;;;;5035472;28;20176;-75
2024/03/31 01:20:40;;;;;;;15.87;12.37;;;8.00;99.90;;;;;;5025479;28;20210;-75
2024/03/31 01:23:08;;;;;;;14.20;11.83;;;8.00;99.90;;;;;;5012666;28;20561;-74
2024/03/31 01:25:35;;;;;;;15.47;11.67;;;8.00;99.90;;;;;;5016567;28;20183;-74
2024/03/31 01:28:01;;;;;;;15.23;12.43;;;8.10;99.90;;;;;;5016873;28;20642;-74
2024/03/31 01:30:26;;;;;;;18.67;12.37;;;8.00;99.90;;;;;;5017838;28;20203;-74
2024/03/31 01:32:52;;;;;;;15.73;12.77;;;8.00;99.90;;;;;;5017409;28;20199;-75
2024/03/31 01:35:18;;;;;;;13.47;12.10;;;8.10;99.90;;;;;;5036402;28;20259;-75
2024/03/31 01:37:49;;;;;;;15.47;12.10;;;8.00;99.90;;;;;;5037196;28;20632;-74
2024/03/31 01:40:15;;;;;;;15.53;12.10;;;8.10;99.90;;;;;;5037861;28;20171;-74
2024/03/31 01:42:40;;;;;;;16.60;12.47;;;8.10;99.90;;;;;;5035736;28;20203;-74
2024/03/31 01:45:06;;;;;;;14.17;12.40;;;8.00;99.90;;;;;;5036321;28;20649;-74
2024/03/31 01:47:31;;;;;;;15.50;12.33;;;8.00;99.90;;;;;;5034889;28;20178;-75
2024/03/31 01:49:57;;;;;;;14.20;12.00;;;8.00;99.90;;;;;;5031474;28;20195;-74
2024/03/31 01:52:22;;;;;;;13.07;11.23;;;8.00;99.90;;;;;;5031819;28;20171;-74
2024/03/31 01:54:48;;;;;;;14.10;11.80;;;8.00;99.90;;;;;;5031269;28;20184;-74
2024/03/31 01:57:14;;;;;;;12.93;11.43;;;8.00;99.90;;;;;;5029314;28;20171;-75
2024/03/31 01:59:39;;;;;;;13.73;11.60;;;8.00;99.90;;;;;;5031187;28;20228;-75
2024/03/31 02:02:05;;;;;;;13.57;11.67;;;8.00;99.90;;;;;;5020412;28;20180;-75
2024/03/31 02:04:30;;;;;;;16.40;12.20;;;8.00;99.90;;;;;;5011612;28;20188;-75
2024/03/31 02:06:56;;;;;;;14.50;12.60;;;8.00;99.90;;;;;;5011458;28;20259;-75
2024/03/31 02:09:22;;;;;;;14.07;12.67;;;8.00;99.90;;;;;;5011515;28;20238;-75
2024/03/31 02:11:47;;;;;;;16.63;13.50;;;8.00;99.90;;;;;;5014901;28;20235;-75
2024/03/31 02:14:13;;;;;;;17.97;13.20;;;8.10;99.90;;;;;;5015274;28;20196;-75
2024/03/31 02:16:38;;;;;;;19.70;13.63;;;8.10;99.90;;;;;;5011498;28;20270;-75
2024/03/31 02:19:04;;;;;;;18.27;13.53;;;8.20;99.90;;;;;;5011307;28;20226;-74
2024/03/31 02:21:29;;;;;;;17.90;13.87;;;8.30;99.90;;;;;;5011726;28;20230;-75
2024/03/31 02:23:55;;;;;;;18.23;14.33;;;8.30;99.90;;;;;;5015339;28;20227;-75
2024/03/31 02:26:21;;;;;;;18.97;14.90;;;8.40;99.90;;;;;;5015033;28;20597;-75
2024/03/31 02:28:46;;;;;;;22.93;17.40;;;8.40;99.90;;;;;;5024987;28;20552;-75
2024/03/31 02:31:12;;;;;;;21.67;16.77;;;8.50;99.90;;;;;;5035234;28;20179;-75
2024/03/31 02:33:37;;;;;;;20.83;15.90;;;8.60;99.90;;;;;;5033569;28;20215;-75
2024/03/31 02:36:03;;;;;;;21.53;16.77;;;8.60;99.90;;;;;;5034723;28;20182;-74
2024/03/31 02:38:29;;;;;;;19.97;16.17;;;8.70;99.90;;;;;;5034449;28;20163;-75
2024/03/31 02:40:55;;;;;;;20.90;16.67;;;8.70;99.90;;;;;;5034884;28;20198;-75
2024/03/31 02:43:20;;;;;;;21.73;15.90;;;8.80;99.90;;;;;;5026120;28;20204;-74
2024/03/31 02:45:46;;;;;;;20.73;16.37;;;8.90;99.90;;;;;;5015900;28;20258;-74
2024/03/31 02:48:11;;;;;;;19.23;15.37;;;9.00;99.90;;;;;;5015569;28;20172;-74
2024/03/31 02:50:37;;;;;;;20.23;15.30;;;9.00;99.90;;;;;;5014882;28;20681;-74
2024/03/31 02:53:03;;;;;;;17.87;15.20;;;9.10;99.90;;;;;;5014776;28;20264;-75
2024/03/31 02:55:28;;;;;;;17.73;14.47;;;9.10;99.90;;;;;;5013487;28;20545;-75
2024/03/31 02:57:54;;;;;;;18.90;15.10;;;9.20;99.90;;;;;;5014950;28;20239;-75
2024/03/31 03:00:19;;;;;;;17.43;14.30;;;9.20;99.90;;;;;;5014089;28;20263;-75
2024/03/31 03:02:45;;;;;;;17.17;14.40;;;9.20;99.90;;;;;;5020674;28;20588;-75
2024/03/31 03:05:11;;;;;;;18.10;13.67;;;9.20;99.90;;;;;;5034644;28;20653;-75
2024/03/31 03:07:36;;;;;;;17.57;13.53;;;9.20;99.90;;;;;;5034732;28;20708;-75
2024/03/31 03:10:03;;;;;;;14.23;12.83;;;9.20;99.90;;;;;;5034345;28;20241;-73
2024/03/31 03:12:29;;;;;;;16.17;13.37;;;9.20;99.90;;;;;;5034546;28;20168;-73
2024/03/31 03:14:55;;;;;;;17.30;12.43;;;9.20;99.90;;;;;;5034737;28;20202;-73
2024/03/31 03:17:20;;;;;;;17.93;12.53;;;9.20;99.90;;;;;;5030142;28;20192;-74
2024/03/31 03:19:46;;;;;;;19.33;11.97;;;9.20;99.90;;;;;;5014684;28;20246;-74
2024/03/31 03:22:12;;;;;;;14.57;12.20;;;9.20;99.90;;;;;;5013728;28;20184;-73
2024/03/31 03:24:38;;;;;;;16.87;12.97;;;9.20;99.90;;;;;;5022425;28;20191;-73
2024/03/31 03:27:03;;;;;;;14.83;12.40;;;9.20;99.90;;;;;;5034422;28;20199;-74
2024/03/31 03:29:29;;;;;;;16.77;12.73;;;9.20;99.90;;;;;;5033041;28;20704;-73
2024/03/31 03:31:55;;;;;;;18.07;12.77;;;9.30;99.90;;;;;;5034354;28;20656;-73
2024/03/31 03:34:20;;;;;;;15.67;12.07;;;9.30;99.90;;;;;;5032300;28;20199;-73
2024/03/31 03:36:46;;;;;;;12.43;10.93;;;9.30;99.90;;;;;;5034226;28;20163;-73
2024/03/31 03:39:15;;;;;;;13.87;11.17;;;9.30;99.90;;;;;;5034161;28;20235;-73
2024/03/31 03:41:41;;;;;;;15.80;10.27;;;9.30;99.90;;;;;;5034681;28;20179;-73
2024/03/31 03:44:06;;;;;;;10.83;9.80;;;9.30;99.90;;;;;;5034276;28;20257;-74
2024/03/31 03:46:32;;;;;;;16.07;11.50;;;9.40;99.90;;;;;;5033805;28;20172;-74
2024/03/31 03:48:57;;;;;;;14.63;9.97;;;9.30;99.90;;;;;;5034006;28;20199;-74
2024/03/31 03:51:23;;;;;;;14.37;10.23;;;9.30;99.90;;;;;;5034411;28;20172;-74
2024/03/31 03:53:48;;;;;;;11.73;9.23;;;9.30;99.90;;;;;;5016390;28;20211;-74
2024/03/31 03:56:15;;;;;;;12.20;9.53;;;9.20;99.90;;;;;;5014555;28;20169;-74
2024/03/31 03:58:40;;;;;;;21.30;11.40;;;9.20;99.90;;;;;;5014246;28;20638;-74
2024/03/31 04:01:06;;;;;;;11.10;10.00;;;9.20;99.90;;;;;;5014263;28;20211;-74
2024/03/31 04:03:32;;;;;;;12.83;10.13;;;9.20;99.90;;;;;;5013876;28;20576;-74
2024/03/31 04:05:58;;;;;;;11.90;10.50;;;9.20;99.90;;;;;;5014002;28;20180;-74
2024/03/31 04:08:24;;;;;;;14.93;9.83;;;9.30;99.90;;;;;;5013854;28;20338;-74
2024/03/31 04:10:50;;;;;;;12.20;9.63;;;9.30;99.90;;;;;;5014213;28;20204;-75
2024/03/31 04:13:16;;;;;;;15.37;9.83;;;9.20;99.90;;;;;;5014000;28;20254;-74
2024/03/31 04:15:42;;;;;;;14.13;10.07;;;9.20;99.90;;;;;;5014032;28;20644;-74
2024/03/31 04:18:08;;;;;;;21.57;9.67;;;9.20;99.90;;;;;;5019801;28;20188;-74
2024/03/31 04:20:40;;;;;;;13.50;9.57;;;9.20;99.90;;;;;;5033503;28;20210;-74
2024/03/31 04:23:05;;;;;;;16.07;9.37;;;9.20;99.90;;;;;;5033571;28;20188;-73
2024/03/31 04:25:31;;;;;;;12.67;9.57;;;9.20;99.90;;;;;;5033417;28;20210;-74
2024/03/31 04:27:56;;;;;;;16.13;9.23;;;9.20;99.90;;;;;;5033391;28;20183;-73
2024/03/31 04:30:22;;;;;;;12.40;9.10;;;9.20;99.90;;;;;;5032832;28;20207;-73
2024/03/31 04:32:47;;;;;;;10.73;9.33;;;9.20;99.90;;;;;;5032752;28;20254;-73
2024/03/31 04:35:13;;;;;;;15.50;10.00;;;9.20;99.90;;;;;;5033013;28;20597;-74
2024/03/31 04:37:39;;;;;;;16.80;9.40;;;9.20;99.90;;;;;;5032791;28;20254;-74
2024/03/31 04:40:05;;;;;;;11.50;9.30;;;9.30;99.90;;;;;;5032741;28;20649;-74
2024/03/31 04:42:30;;;;;;;13.97;8.33;;;9.20;99.90;;;;;;5032632;28;20179;-74
2024/03/31 04:44:56;;;;;;;9.77;8.73;;;9.20;99.90;;;;;;5032229;28;20259;-74
2024/03/31 04:47:25;;;;;;;12.97;8.70;;;9.30;99.90;;;;;;5031908;28;20187;-74
2024/03/31 04:49:50;;;;;;;16.10;9.77;;;9.30;99.90;;;;;;5032521;28;20306;-73
2024/03/31 04:52:16;;;;;;;12.60;8.63;;;9.20;99.90;;;;;;5032491;28;20207;-74
2024/03/31 04:54:41;;;;;;;13.07;9.37;;;9.30;99.90;;;;;;5032495;28;20246;-74
2024/03/31 04:57:07;;;;;;;15.27;9.33;;;9.30;99.90;;;;;;5031711;28;20649;-74
2024/03/31 04:59:35;;;;;;;12.70;9.17;;;9.20;99.90;;;;;;5032695;28;20244;-76
2024/03/31 05:02:01;;;;;;;14.40;9.50;;;9.10;99.90;;;;;;5032301;28;20667;-73
2024/03/31 05:04:26;;;;;;;13.37;8.17;;;9.10;99.90;;;;;;5032085;28;20195;-75
2024/03/31 05:06:52;;;;;;;14.47;8.77;;;9.10;99.90;;;;;;5031928;28;20184;-74
2024/03/31 05:09:18;;;;;;;14.83;9.00;;;9.10;99.90;;;;;;5032115;28;20206;-73
2024/03/31 05:11:43;;;;;;;16.63;9.17;;;9.10;99.90;;;;;;5032353;28;20673;-74
2024/03/31 05:14:09;;;;;;;11.10;8.93;;;9.20;99.90;;;;;;5025813;28;20291;-75
2024/03/31 05:16:34;;;;;;;19.57;9.10;;;9.20;99.90;;;;;;5012081;28;20195;-74
2024/03/31 05:19:00;;;;;;;12.37;8.73;;;9.20;99.90;;;;;;5012380;28;20180;-75
2024/03/31 05:21:26;;;;;;;9.33;8.33;;;9.30;99.90;;;;;;5012296;28;20242;-74
2024/03/31 05:23:51;;;;;;;9.57;8.60;;;9.30;99.90;;;;;;5011974;28;20206;-74
2024/03/31 05:26:17;;;;;;;13.43;8.17;;;9.30;99.90;;;;;;5011963;28;20169;-74
2024/03/31 05:28:42;;;;;;;13.00;8.00;;;9.30;99.90;;;;;;5011947;28;20187;-74
2024/03/31 05:31:08;;;;;;;13.07;7.97;;;9.30;99.90;;;;;;5012094;28;20247;-75
2024/03/31 05:33:34;;;;;;;9.13;7.60;;;9.40;99.90;;;;;;5011479;28;20283;-75
2024/03/31 05:36:00;;;;;;;14.50;8.30;;;9.40;99.90;;;;;;5010211;28;20558;-75
2024/03/31 05:38:26;;;;;;;13.40;8.50;;;9.40;99.90;;;;;;5011342;28;20541;-75
2024/03/31 05:40:52;;;;;;;8.60;7.40;;;9.30;99.90;;;;;;5011882;28;20176;-75
2024/03/31 05:43:17;;;;;;;16.37;8.70;;;9.40;99.90;;;;;;5012536;28;20431;-74
2024/03/31 05:45:43;;;;;;;11.90;8.43;;;9.40;99.90;;;;;;5011762;28;20688;-76
2024/03/31 05:48:10;;;;;;;9.97;8.27;;;9.40;99.90;;;;;;5009888;28;20234;-76
2024/03/31 05:50:36;;;;;;;18.37;8.37;;;9.40;99.90;;;;;;5011463;28;20282;-75
2024/03/31 05:53:02;;;;;;;13.93;8.47;;;9.40;99.90;;;;;;5011684;28;20737;-75
2024/03/31 05:55:28;;;;;;;12.07;7.67;;;9.40;99.90;;;;;;5011508;28;20165;-74
2024/03/31 05:57:55;;;;;;;12.30;8.20;;;9.40;99.90;;;;;;5015986;28;20175;-76
2024/03/31 06:00:20;;;;;;;12.27;7.93;;;9.30;99.90;;;;;;5030983;28;20561;-75
2024/03/31 06:02:46;;;;;;;12.53;7.53;;;9.30;99.90;;;;;;5030918;28;20174;-76
2024/03/31 06:05:12;;;;;;;11.27;7.97;;;9.30;99.90;;;;;;5029694;28;20609;-76
2024/03/31 06:07:37;;;;;;;12.47;8.47;;;9.30;99.90;;;;;;5030063;28;20634;-76
2024/03/31 06:10:03;;;;;;;17.50;8.20;;;9.30;99.90;;;;;;5018751;28;20211;-77
2024/03/31 06:12:29;;;;;;;17.53;8.43;;;9.20;99.90;;;;;;5010926;28;20482;-76
2024/03/31 06:14:54;;;;;;;13.87;7.53;;;9.20;99.90;;;;;;5009700;28;20643;-76
2024/03/31 06:17:20;;;;;;;13.67;8.50;;;9.30;99.90;;;;;;5010906;28;20188;-76
2024/03/31 06:19:46;;;;;;;15.47;7.40;;;9.30;99.90;;;;;;5011279;28;20700;-75
2024/03/31 06:22:12;;;;;;;16.50;8.00;;;9.30;99.90;;;;;;5011092;28;20175;-75
2024/03/31 06:24:37;;;;;;;16.67;7.73;;;9.30;99.90;;;;;;5020940;28;20209;-75
2024/03/31 06:27:03;;;;;;;18.87;8.20;;;9.40;99.90;;;;;;5030762;28;20199;-75
2024/03/31 06:29:29;;;;;;;8.87;7.97;;;9.50;99.90;;;;;;5027652;28;20583;-76
2024/03/31 06:31:54;;;;;;;11.00;7.67;;;9.60;99.90;;;;;;5010833;28;20250;-75
2024/03/31 06:34:20;;;;;;;14.10;8.30;;;9.80;99.90;;;;;;5010838;28;20204;-75
2024/03/31 06:36:45;;;;;;;16.77;7.70;;;10.20;99.90;;;;;;5010664;28;20173;-75
2024/03/31 06:39:12;;;;;;;13.07;7.33;;;10.60;99.90;;;;;;5029298;28;20207;-75
2024/03/31 06:41:37;;;;;;;12.53;7.43;;;11.10;99.90;;;;;;5030345;28;20278;-75
2024/03/31 06:44:03;;;;;;;13.43;6.83;;;11.50;99.90;;;;;;5030372;28;20191;-75
2024/03/31 06:46:28;;;;;;;14.03;6.37;;;11.80;99.90;;;;;;5030405;28;20548;-75
2024/03/31 06:48:54;;;;;;;9.83;6.43;;;12.20;99.90;;;;;;5030180;28;20176;-75
2024/03/31 06:51:20;;;;;;;15.83;5.63;;;12.50;99.90;;;;;;5030558;28;20603;-75
2024/03/31 06:53:47;;;;;;;13.20;4.50;;;12.60;99.90;;;;;;5027085;28;20202;-75
2024/03/31 06:56:13;;;;;;;6.47;4.73;;;12.50;99.90;;;;;;5026832;28;20172;-75
2024/03/31 06:58:38;;;;;;;10.03;4.60;;;12.40;99.90;;;;;;5030449;28;20186;-75
2024/03/31 07:01:04;;;;;;;13.00;4.80;;;12.30;99.90;;;;;;5019026;28;20176;-75
2024/03/31 07:03:29;;;;;;;8.80;4.37;;;12.10;99.90;;;;;;5010832;28;20286;-75
2024/03/31 07:05:55;;;;;;;7.40;4.37;;;12.00;99.90;;;;;;5010636;28;20172;-74
2024/03/31 07:08:20;;;;;;;11.53;5.43;;;11.90;99.90;;;;;;5012524;28;20176;-75
2024/03/31 07:10:46;;;;;;;10.57;5.60;;;12.00;99.90;;;;;;5015028;28;20204;-75
2024/03/31 07:13:12;;;;;;;7.63;4.97;;;12.20;99.90;;;;;;5014426;28;20560;-75
2024/03/31 07:15:38;;;;;;;10.40;4.33;;;12.60;99.90;;;;;;5013554;28;20169;-76
2024/03/31 07:18:08;;;;;;;7.87;4.40;;;12.80;99.90;;;;;;5014300;28;20676;-75
2024/03/31 07:20:35;;;;;;;5.40;4.00;;;13.00;99.90;;;;;;5014309;28;20629;-76
2024/03/31 07:23:02;;;;;;;8.43;3.80;;;13.00;99.90;;;;;;5013408;28;20208;-76
2024/03/31 07:25:29;;;;;;;13.37;4.33;;;12.90;99.90;;;;;;5014224;28;20168;-76
2024/03/31 07:27:54;;;;;;;10.87;4.70;;;12.70;99.90;;;;;;5032644;28;20259;-76
2024/03/31 07:30:20;;;;;;;10.07;3.87;;;12.80;99.90;;;;;;5033957;28;20330;-76
2024/03/31 07:32:45;;;;;;;11.73;4.30;;;12.80;99.90;;;;;;5034081;28;20174;-76
2024/03/31 07:35:11;;;;;;;7.23;3.83;;;12.80;99.90;;;;;;5034273;28;20163;-76
2024/03/31 07:37:36;;;;;;;6.70;3.50;;;12.80;99.90;;;;;;5033961;28;20527;-76
2024/03/31 07:40:03;;;;;;;11.03;3.87;;;12.80;99.90;;;;;;5034415;28;20273;-76
2024/03/31 07:42:28;;;;;;;10.43;3.90;;;12.80;99.90;;;;;;5026802;28;20195;-76
2024/03/31 07:44:54;;;;;;;12.20;3.50;;;12.80;99.90;;;;;;5014170;28;20200;-76
2024/03/31 07:47:20;;;;;;;11.57;4.33;;;12.80;99.90;;;;;;5013938;28;20549;-75
2024/03/31 07:49:45;;;;;;;16.00;4.60;;;12.80;99.90;;;;;;5013859;28;20289;-76
2024/03/31 07:52:11;;;;;;;10.60;3.70;;;13.00;99.90;;;;;;5013961;28;20481;-75
2024/03/31 07:54:37;;;;;;;12.90;3.70;;;13.20;99.90;;;;;;5013367;28;20246;-76
2024/03/31 07:57:02;;;;;;;9.63;3.83;;;13.40;99.90;;;;;;5014964;28;20177;-76
2024/03/31 07:59:29;;;;;;;13.90;4.40;;;13.90;99.90;;;;;;5022389;28;20184;-76
2024/03/31 08:01:54;;;;;;;6.70;3.73;;;14.40;99.90;;;;;;5014820;28;20208;-75
2024/03/31 08:04:20;;;;;;;6.40;3.43;;;15.00;99.90;;;;;;5013527;28;20242;-75
2024/03/31 08:06:46;;;;;;;8.17;3.90;;;15.60;99.90;;;;;;5013290;28;20188;-76
2024/03/31 08:09:12;;;;;;;13.30;3.90;;;16.20;99.90;;;;;;5013385;28;20196;-76
2024/03/31 08:11:37;;;;;;;7.37;3.57;;;16.60;99.90;;;;;;5012570;28;20203;-75
2024/03/31 08:14:03;;;;;;;14.37;5.07;;;16.90;99.90;;;;;;5013188;28;20192;-75
2024/03/31 08:16:29;;;;;;;10.67;3.77;;;17.20;99.90;;;;;;5012635;28;20242;-75
2024/03/31 08:18:57;;;;;;;7.47;3.60;;;17.40;99.90;;;;;;5013012;28;20187;-75
2024/03/31 08:21:22;;;;;;;7.17;3.90;;;17.40;99.90;;;;;;5012716;28;20172;-72
2024/03/31 08:23:48;;;;;;;10.20;3.20;;;17.50;99.90;;;;;;5013000;28;20546;-75
2024/03/31 08:26:14;;;;;;;9.17;2.80;;;17.30;99.90;;;;;;5013144;28;20176;-74
2024/03/31 08:28:39;;;;;;;10.70;3.13;;;17.40;99.90;;;;;;5013689;28;20186;-74
2024/03/31 08:31:05;;;;;;;9.80;2.83;;;17.50;99.90;;;;;;5032913;28;20580;-73
2024/03/31 08:33:31;;;;;;;9.13;2.90;;;17.70;99.90;;;;;;5032484;28;20203;-74
2024/03/31 08:35:56;;;;;;;6.07;2.83;;;17.80;99.90;;;;;;5032639;28;20207;-75
2024/03/31 08:38:22;;;;;;;9.37;3.00;;;18.20;99.90;;;;;;5032396;28;20250;-75
2024/03/31 08:40:53;;;;;;;5.73;3.20;;;18.30;99.90;;;;;;5032701;28;20175;-76
2024/03/31 08:43:21;;;;;;;11.95;2.92;;;18.50;99.90;;;;;;5013348;28;20212;-75
2024/03/31 08:45:48;;;;;;;6.27;3.07;;;18.70;99.90;;;;;;5012946;28;20180;-75
2024/03/31 08:48:18;;;;;;;8.65;3.25;;;18.90;99.90;;;;;;5012688;28;20184;-75
2024/03/31 08:50:45;;;;;;;10.43;3.33;;;19.20;99.90;;;;;;5012533;28;20204;-74
2024/03/31 08:53:11;;;;;;;10.13;3.30;;;19.20;99.90;;;;;;5012983;28;20259;-76
2024/03/31 08:55:37;;;;;;;6.68;3.08;;;19.40;99.90;;;;;;5012772;28;20176;-75
2024/03/31 08:58:02;;;;;;;10.52;2.80;;;19.50;99.90;;;;;;5031733;28;20187;-76
2024/03/31 09:00:29;;;;;;;7.25;2.92;;;19.40;99.90;;;;;;5032331;28;20172;-75
2024/03/31 09:02:55;;;;;;;9.13;2.90;;;19.30;99.90;;;;;;5016785;28;20207;-74
2024/03/31 09:05:21;;;;;;;9.98;3.03;;;19.30;99.90;;;;;;5013469;28;20536;-75
2024/03/31 09:07:47;;;;;;;5.22;2.38;;;19.50;99.90;;;;;;5013333;28;20643;-75
2024/03/31 09:10:14;;;;;;;7.72;3.42;;;19.90;99.90;;;;;;5013027;28;20207;-75
2024/03/31 09:12:43;;;;;;;7.80;3.03;;;20.20;99.90;;;;;;5012801;28;20176;-74
2024/03/31 09:15:09;;;;;;;6.43;2.75;;;20.30;99.90;;;;;;5012553;28;20264;-74
2024/03/31 09:17:35;;;;;;;8.85;2.83;;;20.10;99.90;;;;;;5012350;28;20542;-74
2024/03/31 09:20:03;;;;;;;8.68;2.78;;;19.80;99.90;;;;;;5014531;28;20172;-75
2024/03/31 09:22:30;;;;;;;9.27;3.20;;;19.90;99.90;;;;;;5011972;28;20176;-75
2024/03/31 09:24:56;;;;;;;8.80;3.05;;;20.10;99.90;;;;;;5012528;28;20202;-75
2024/03/31 09:27:23;;;;;;;6.32;2.70;;;20.00;99.90;;;;;;5012677;28;20168;-75
2024/03/31 09:29:49;;;;;;;11.50;3.08;;;20.00;99.90;;;;;;5020464;28;20234;-76
2024/03/31 09:32:16;;;;;;;10.43;2.72;;;20.00;99.90;;;;;;5031652;28;20203;-75
2024/03/31 09:34:46;;;;;;;9.23;2.83;;;20.10;99.90;;;;;;5031412;28;20225;-76
2024/03/31 09:37:12;;;;;;;9.25;3.20;;;19.90;99.90;;;;;;5026748;28;20592;-75
2024/03/31 09:39:38;;;;;;;10.43;3.05;;;19.90;99.90;;;;;;5028330;28;20233;-75
2024/03/31 09:42:06;;;;;;;7.80;2.78;;;19.80;99.90;;;;;;5031558;28;20630;-75
2024/03/31 09:44:32;;;;;;;8.35;2.72;;;19.70;99.90;;;;;;5031209;28;20192;-74
2024/03/31 09:46:59;;;;;;;6.75;2.92;;;19.80;99.90;;;;;;5029584;28;20193;-75
2024/03/31 09:49:31;;;;;;;10.45;3.00;;;19.70;99.90;;;;;;5030532;28;20199;-74
2024/03/31 09:51:59;;;;;;;6.68;2.88;;;19.60;99.90;;;;;;5032295;28;20180;-75
2024/03/31 09:54:42;;;;;;;6.10;2.67;;;19.40;99.90;;;;;;5031421;28;20195;-74
2024/03/31 09:57:11;;;;;;;7.03;2.78;;;19.50;99.90;;;;;;5031460;28;20641;-75
2024/03/31 09:59:40;;;;;;;7.40;3.08;;;19.80;99.90;;;;;;5030005;28;20310;-75
2024/03/31 10:02:08;;;;;;;7.57;2.78;;;20.20;99.90;;;;;;5029763;28;20266;-75
2024/03/31 10:04:49;;;;;;;6.53;2.47;;;20.40;99.90;;;;;;5031718;28;20198;-73
2024/03/31 10:07:17;;;;;;;4.78;3.00;;;20.10;99.90;;;;;;5013017;28;20179;-74
2024/03/31 10:09:43;;;;;;;5.35;2.47;;;19.60;99.90;;;;;;5011325;28;20192;-73
2024/03/31 10:12:09;;;;;;;5.43;2.80;;;19.40;99.90;;;;;;5011517;28;20539;-74
2024/03/31 10:14:37;;;;;;;7.53;2.50;;;19.40;99.90;;;;;;5010490;28;20554;-74
2024/03/31 10:17:03;;;;;;;5.40;2.50;;;19.30;99.90;;;;;;5011766;28;20226;-74
2024/03/31 10:19:31;;;;;;;7.50;2.50;;;19.10;99.90;;;;;;5011585;28;20179;-74
2024/03/31 10:21:58;;;;;;;5.87;2.67;;;19.10;99.90;;;;;;5029499;28;20187;-73
2024/03/31 10:24:25;;;;;;;10.75;3.05;;;19.30;99.90;;;;;;5031085;28;20612;-74
2024/03/31 10:26:53;;;;;;;5.00;2.47;;;19.60;99.90;;;;;;5030895;28;20190;-73
2024/03/31 10:29:19;;;;;;;8.48;3.05;;;19.70;99.90;;;;;;5031482;28;20226;-72
2024/03/31 10:31:45;;;;;;;3.92;2.35;;;19.60;99.90;;;;;;5031220;28;20175;-74
2024/03/31 10:34:12;;;;;;;5.80;2.40;;;19.50;99.90;;;;;;5021725;28;20241;-74
2024/03/31 10:36:38;;;;;;;5.32;2.38;;;19.80;99.90;;;;;;5010920;28;20646;-74
2024/03/31 10:39:06;;;;;;;6.38;3.13;;;20.20;99.90;;;;;;5011505;28;20182;-73
2024/03/31 10:41:32;;;;;;;7.40;2.75;;;20.60;99.90;;;;;;5011748;28;20169;-74
2024/03/31 10:43:59;;;;;;;4.25;2.50;;;20.70;99.90;;;;;;5012667;28;20257;-74
2024/03/31 10:46:25;;;;;;;5.20;3.25;;;21.00;99.90;;;;;;5015415;28;20179;-74
2024/03/31 10:49:01;;;;;;;5.22;2.88;;;21.10;99.90;;;;;;5015126;28;20271;-74
2024/03/31 10:51:27;;;;;;;8.93;2.90;;;21.10;99.90;;;;;;5015372;28;20172;-74
2024/03/31 10:53:54;;;;;;;5.00;3.08;;;20.90;99.90;;;;;;5016009;28;20680;-74
2024/03/31 10:56:28;;;;;;;7.65;2.70;;;20.50;99.90;;;;;;5015803;28;20183;-74
2024/03/31 10:59:07;;;;;;;8.38;2.70;;;20.50;99.90;;;;;;5015085;28;20743;-74
2024/03/31 11:01:37;;;;;;;6.40;3.92;;;20.80;99.90;;;;;;5014984;28;20528;-73
2024/03/31 11:04:22;;;;;;;6.43;3.47;;;21.10;99.90;;;;;;5014758;28;20184;-74
2024/03/31 11:06:49;;;;;;;6.60;3.25;;;21.30;99.90;;;;;;5014405;28;20172;-73
2024/03/31 11:09:15;;;;;;;8.90;2.78;;;21.70;99.90;;;;;;5014661;28;20604;-73
2024/03/31 11:11:41;;;;;;;5.57;2.25;;;22.00;99.90;;;;;;5014608;28;20230;-73
2024/03/31 11:14:06;;;;;;;4.28;2.10;;;22.40;99.90;;;;;;5014193;28;20215;-72
2024/03/31 11:16:32;;;;;;;5.82;2.95;;;22.80;99.90;;;;;;5015078;28;20673;-74
2024/03/31 11:18:58;;;;;;;6.85;2.08;;;23.10;99.90;;;;;;5015132;28;20168;-75
2024/03/31 11:21:34;;;;;;;6.05;2.10;;;23.40;99.90;;;;;;5015295;28;20175;-74
2024/03/31 11:24:04;;;;;;;3.92;1.80;;;23.40;99.90;;;;;;5014704;28;20314;-74
2024/03/31 11:26:30;;;;;;;5.25;2.20;;;23.10;99.30;;;;;;5014870;28;20175;-74
2024/03/31 11:28:57;;;;;;;3.45;2.00;;;22.70;99.90;;;;;;5014718;28;20164;-74
2024/03/31 11:31:23;;;;;;;6.60;2.35;;;22.50;99.90;;;;;;5033191;28;20653;-74
2024/03/31 11:33:49;;;;;;;5.85;2.45;;;22.10;99.70;;;;;;5033986;28;20279;-73
2024/03/31 11:36:18;;;;;;;3.42;2.70;;;21.80;99.90;;;;;;5034108;28;20183;-73
2024/03/31 11:38:44;;;;;;;6.20;2.58;;;21.60;99.90;;;;;;5033161;28;20504;-74
2024/03/31 11:41:10;;;;;;;8.05;2.83;;;21.30;99.40;;;;;;5033833;28;20555;-74
2024/03/31 11:43:36;;;;;;;7.10;2.70;;;21.10;99.90;;;;;;5033581;28;20273;-72
2024/03/31 11:46:02;;;;;;;7.72;2.20;;;21.10;99.30;;;;;;5033925;28;20251;-75
2024/03/31 11:48:28;;;;;;;5.00;2.47;;;21.30;99.90;;;;;;5033990;28;20163;-76
2024/03/31 11:50:54;;;;;;;4.25;2.30;;;21.60;99.90;;;;;;5033823;28;20210;-75
2024/03/31 11:53:20;;;;;;;5.40;2.10;;;22.10;99.90;;;;;;5016549;28;20204;-74
2024/03/31 11:55:45;;;;;;;5.20;2.50;;;22.10;98.60;;;;;;5013205;28;20196;-75
2024/03/31 11:58:11;;;;;;;9.35;2.30;;;22.00;97.10;;;;;;5022032;28;20687;-77
2024/03/31 12:00:37;;;;;;;4.82;2.00;;;21.90;97.70;;;;;;5023917;28;20259;-75
2024/03/31 12:03:06;;;;;;;6.40;2.55;;;21.80;97.60;;;;;;5025368;28;20196;-75
2024/03/31 12:05:32;;;;;;;3.70;2.28;;;21.70;96.10;;;;;;5034026;28;20171;-75
2024/03/31 12:07:58;;;;;;;6.28;2.85;;;21.60;98.20;;;;;;5014803;28;20176;-74
2024/03/31 12:10:24;;;;;;;4.05;2.30;;;21.40;99.40;;;;;;5014549;28;20226;-75
2024/03/31 12:12:50;;;;;;;6.03;2.70;;;21.30;99.30;;;;;;5014139;28;20179;-75
2024/03/31 12:15:16;;;;;;;5.43;2.45;;;21.40;98.70;;;;;;5013878;28;20238;-74
2024/03/31 12:17:41;;;;;;;5.35;2.22;;;21.50;99.40;;;;;;5012785;28;20191;-74
2024/03/31 12:20:10;;;;;;;6.97;2.90;;;21.60;99.20;;;;;;5013525;28;20259;-75
2024/03/31 12:22:42;;;;;;;3.45;2.22;;;21.60;98.50;;;;;;5013164;28;20183;-73
2024/03/31 12:25:11;;;;;;;7.85;2.53;;;21.70;99.60;;;;;;5013483;28;20184;-75
2024/03/31 12:27:38;;;;;;;4.80;2.80;;;21.70;98.70;;;;;;5013818;28;20178;-76
2024/03/31 12:30:04;;;;;;;6.50;2.40;;;21.60;98.70;;;;;;5027002;28;20650;-75
2024/03/31 12:32:30;;;;;;;5.60;2.30;;;21.50;99.60;;;;;;5033067;28;20249;-76
2024/03/31 12:34:57;;;;;;;5.03;2.70;;;21.40;99.90;;;;;;5033157;28;20242;-77
2024/03/31 12:37:26;;;;;;;4.05;2.45;;;21.20;98.30;;;;;;5032714;28;20412;-75